Accueil
METAR-TAF:

METAR-TAF

Aéroports :

Aéroport international L.F. Wade

Bermudes, Bermudes

latitude: 32-22N, longitude: 064-41W, altitude: 6 m

Observation

Le bulletin a été fait il y a 14 minutes, à 22:55 UTC
Vent 6 kt de ouest/nord-ouest
Température 28°C
Humidité 74%
Pression 1023 hPa
Visibilité 10 km ou plus
Quelques nuages à une hauteur de 2200 ft

METAR: TXKF 162255Z 30006KT 9999 FEW022 28/23 Q1023

Heure: 20:09 (23:09 UTC)

Prévision

Le bulletin a été fait il y a 5 heures et 37 minutes, à 17:32 UTC
Prévision valable du 16 à 18 UTC au 17 à 18 UTC
Vent 8 kt de nord-ouest
Visibilité 10 km ou plus
Nuages épars à une hauteur de 1900 ft

TAF: TXKF 161732Z 1618/1718 31008KT 9999 SCT019

Observations et prévisions météorologiques de plus de 4000 aéroports (messages METAR et TAF).

Les stations disponibles sont représentées par des disques jaunes et rouges sur la carte.

Passer la souris dessus pour voir le nom de la station.

Cliquer dessus pour voir les observations et prévisions météorologiques.

Pour changer de carte: cliquez sur les boutons verts avec une croix noire pour zoomer, sur le bouton vert avec un tiret pour effectuer un zoom arrière, ou sur les flèches vertes pour les cartes adjacentes.


METAR-TAF: